Aviation Digital Data Service (ADDS)

Output produced by METARs form (1930 UTC 18 June 2019)
found at http://www.aviationweather.gov/metar/data/
 
MNBL 181900Z 07008KT 9999 SCT017 31/27 Q1010
TAF MNBL 181445Z 1818/1918 02008KT 9999 SCT017 
     FM180200 07006KT 7000 
     PROB40 -TSRA FEW020CB FM 190100 11006KT 9999 SCT021
       
MNMG 181900Z 07012KT 9999 SCT025 34/23 Q1009 A2980 NOSIG
MNMG 181009Z 1812/1912 12008KT 9999 FEW020 SCT080 
     TEMPO 1815/1819 09012KT FEW023 
     BECMG 1820/1823 SCT024
       
MNPC 181900Z 07010KT 6000 VCRA BKN016TCU 31/27 Q1011 TCURA/NW
TAF MNPC 181445Z 1818/1918 09006KT 4000 -SHRA BKN016TCU 
     BECMG 1819/1901 06008KT 8000 HZ SCT018 
     BECMG 1912/1917 08008KT SCT020